createdAt,value
2019-05-28T09:42:23.533Z,69.30
2019-05-28T10:51:29.601Z,60.30
2019-05-28T10:53:58.405Z,57.30
2019-05-28T10:56:27.745Z,56.80
2019-05-28T10:58:56.980Z,57.10
2019-05-28T11:01:26.158Z,58.20
2019-05-28T11:03:55.304Z,59.30
2019-05-28T11:06:24.148Z,60.70
2019-05-28T11:08:53.421Z,61.20
2019-05-28T11:11:22.236Z,60.10
2019-05-28T11:13:53.331Z,57.40
2019-05-28T11:16:21.617Z,56.60
2019-05-28T11:18:50.598Z,57.20
2019-05-28T11:21:19.730Z,58.90
2019-05-28T11:23:53.227Z,59.40
2019-05-28T11:26:22.469Z,59.00
2019-05-28T11:28:51.365Z,59.50
2019-05-28T11:31:20.254Z,58.90
2019-05-28T11:33:49.386Z,59.40
2019-05-28T11:36:18.270Z,58.10
2019-05-28T11:38:47.532Z,56.70
2019-05-28T11:41:16.380Z,55.30
2019-05-28T11:43:45.176Z,54.90
2019-05-28T12:03:15.004Z,56.70
2019-05-28T12:05:47.794Z,58.30
2019-05-28T12:08:16.755Z,58.20
2019-05-28T12:10:45.577Z,58.30
2019-05-28T12:13:14.561Z,58.40
2019-05-28T12:15:43.567Z,57.50
2019-05-28T12:18:12.985Z,58.60
2019-05-28T12:20:41.877Z,59.20
2019-05-28T12:23:12.215Z,60.10
2019-05-28T12:25:41.277Z,58.50
2019-05-28T12:28:10.494Z,57.70
2019-05-28T12:30:39.412Z,58.10
2019-05-28T12:33:08.280Z,56.90
2019-05-28T12:35:42.277Z,57.90
2019-05-28T12:38:07.643Z,58.70
2019-05-28T12:40:47.266Z,58.40
2019-05-28T12:43:07.074Z,57.80
2019-05-28T12:45:36.556Z,56.60
2019-05-28T12:48:11.465Z,57.00
2019-05-28T12:50:36.298Z,56.10
2019-05-28T12:53:05.208Z,56.90
2019-05-28T12:55:34.014Z,55.40
2019-05-28T12:58:02.834Z,56.10
2019-05-28T13:00:31.736Z,55.00
2019-05-28T13:03:00.747Z,54.00
2019-05-28T13:05:29.639Z,51.60
2019-05-28T13:08:08.108Z,52.30
2019-05-28T13:10:29.145Z,52.20
2019-05-28T13:12:58.511Z,52.70
2019-05-28T13:15:27.398Z,53.30
2019-05-28T13:17:56.410Z,53.40
2019-05-28T13:20:25.260Z,53.00
2019-05-28T13:22:54.075Z,50.40
2019-05-28T13:25:22.983Z,50.20
2019-05-28T13:27:51.847Z,49.60
2019-05-28T13:30:20.870Z,50.00
2019-05-28T13:32:50.333Z,48.60
2019-05-28T13:35:19.265Z,47.90
2019-05-28T13:37:48.340Z,48.80
2019-05-28T13:40:17.241Z,49.60
2019-05-28T13:42:46.125Z,51.80
2019-05-28T13:45:15.137Z,50.40
2019-05-28T13:47:44.354Z,49.20
2019-05-28T13:50:13.181Z,49.00
2019-05-28T13:52:42.068Z,49.20
2019-05-28T13:55:11.073Z,49.40
2019-05-28T13:57:40.103Z,50.30
2019-05-28T14:00:09.194Z,49.50
2019-05-28T14:02:38.157Z,50.60
2019-05-28T14:05:07.088Z,49.70
2019-05-28T14:07:35.980Z,46.20
2019-05-28T14:10:05.664Z,48.00
2019-05-28T14:12:34.582Z,49.20
2019-05-28T14:15:03.786Z,47.30
2019-05-28T14:17:33.783Z,49.40
2019-05-28T14:22:33.463Z,47.70
2019-05-28T14:24:54.381Z,46.60
2019-05-28T14:38:06.411Z,45.20
2019-05-28T15:04:22.689Z,47.30
2019-05-28T15:12:51.426Z,46.60
2019-05-28T15:36:32.278Z,47.40
2019-05-28T16:27:29.585Z,48.10
2019-05-28T16:29:58.662Z,48.80
2019-05-28T16:32:29.346Z,48.40
2019-05-28T16:34:59.165Z,48.80
2019-05-28T16:37:28.311Z,49.50
2019-05-28T16:40:13.461Z,50.60
2019-05-28T16:42:27.772Z,51.00
2019-05-28T16:44:56.677Z,52.10
2019-05-28T16:47:25.875Z,52.60
2019-05-28T16:49:55.582Z,52.90
2019-05-28T16:52:24.458Z,51.90
2019-05-28T16:54:53.349Z,52.30
2019-05-28T16:57:28.013Z,51.80
2019-05-28T16:59:56.900Z,51.90
2019-05-28T17:02:25.710Z,52.30
2019-05-28T17:04:54.549Z,53.00
